Crew | Aerofun Virtual



 METAR AND TAF INFORMATION
METAR FOR EFKS
ADDS - METARS form results

(1529 UTC 24 May 2019)
Data provider http://aviationweather.gov/metar/data/
 
METAR text: EFKS 241520Z AUTO 16009KT CAVOK 09/M04 Q1010
Conditions at: EFKS (KUUSAMO , FI) observed 1520 UTC 24 May 2019
Temperature: 9.0°C (48°F)
Dewpoint: -4.0°C (25°F) [RH = 40%]
Pressure (altimeter): 29.82 inches Hg (1010.0 mb)
Winds: from the SSE (160 degrees) at 10 MPH (9 knots; 4.6 m/s)
Visibility: 6 or more miles (10+ km)
Ceiling: ceiling and visibility are OK
Clouds: unknown
Weather: no significant weather observed at this time

METAR text: EFKS 241450Z AUTO 17010KT 140V200 CAVOK 10/M04 Q1011
Conditions at: EFKS (KUUSAMO , FI) observed 1450 UTC 24 May 2019
Temperature: 10.0°C (50°F)
Dewpoint: -4.0°C (25°F) [RH = 37%]
Pressure (altimeter): 29.85 inches Hg (1011.0 mb)
Winds: from the S (170 degrees) at 12 MPH (10 knots; 5.1 m/s)
Visibility: 6 or more miles (10+ km)
Ceiling: ceiling and visibility are OK
Clouds: unknown
Weather: no significant weather observed at this time

Forecast for: EFKS (KUUSAMO , FI)
Text: TAF EFKS 241435Z 2415/2420 17010KT CAVOK
Forecast period: 1500 to 2000 UTC 24 May 2019
Forecast type: FROM: standard forecast or significant change
Winds: from the S (170 degrees) at 12 MPH (10 knots; 5.1 m/s)
Visibility: 6 or more miles 10+ km)
Ceiling: unknown
Clouds: missing
Weather: NSW  (no significant weather)

 AIRPORT MAP

 RUNWAY INFORMATION
Runway 12 Runway length 8202 ft Runway width 148 ft
Runway elevation 866 ft Runway displaced threshold 131 ft Runway heading 132
Runway 30 Runway length 8202 ft Runway width 148 ft
Runway elevation 865 ft Runway displaced threshold 0 ft Runway heading 312

 AIRPORT FREQUENCIES
Type AFIS Name AFIS Frequency 118.65 MHZ
Type ATIS Name ATIS Frequency 114.4 MHZ

 AIRPORT NEAR NAVIGATION AIDS
Type VOR-DME Name Kantola Frequency 114400 KHZ
Type NDB Name Kilo-Sierra Frequency 340 KHZ